createdAt,value
2022-11-03T00:01:46.943Z,101268.72
2022-11-03T00:04:19.063Z,101273.38
2022-11-03T00:06:48.368Z,101264.94
2022-11-03T00:09:19.440Z,101269.44
2022-11-03T00:11:50.689Z,101272.16
2022-11-03T00:14:20.712Z,101268.00
2022-11-03T00:16:48.750Z,101273.41
2022-11-03T00:19:17.513Z,101272.75
2022-11-03T00:21:46.521Z,101273.84
2022-11-03T00:24:15.130Z,101270.41
2022-11-03T00:26:44.515Z,101272.53
2022-11-03T00:29:14.360Z,101267.41
2022-11-03T00:31:43.800Z,101271.22
2022-11-03T00:34:12.674Z,101268.78
2022-11-03T00:36:42.425Z,101270.78
2022-11-03T00:39:10.382Z,101277.03
2022-11-03T00:41:38.886Z,101279.13
2022-11-03T00:44:10.471Z,101289.00
2022-11-03T00:46:38.436Z,101287.47
2022-11-03T00:49:06.958Z,101290.25
2022-11-03T00:51:36.357Z,101292.47
2022-11-03T00:54:07.180Z,101293.28
2022-11-03T00:56:36.755Z,101294.91
2022-11-03T00:59:06.807Z,101300.22
2022-11-03T01:01:45.357Z,101295.00
2022-11-03T01:04:32.000Z,101290.50
2022-11-03T01:07:01.022Z,101292.31
2022-11-03T01:09:31.138Z,101291.38
2022-11-03T01:12:04.471Z,101292.47
2022-11-03T01:14:34.343Z,101291.72
2022-11-03T01:17:05.427Z,101291.03
2022-11-03T01:19:33.529Z,101294.56
2022-11-03T01:22:03.268Z,101281.78
2022-11-03T01:24:33.192Z,101294.16
2022-11-03T01:27:01.078Z,101296.84
2022-11-03T01:29:28.979Z,101298.94
2022-11-03T01:31:57.005Z,101297.28
2022-11-03T01:34:26.415Z,101304.25
2022-11-03T01:36:54.297Z,101306.84
2022-11-03T01:39:22.368Z,101319.13
2022-11-03T01:41:52.710Z,101321.00
2022-11-03T01:44:31.443Z,101322.78
2022-11-03T01:47:07.415Z,101327.88
2022-11-03T01:49:42.004Z,101327.88
2022-11-03T01:52:15.756Z,101321.56
2022-11-03T01:54:47.221Z,101323.34
2022-11-03T01:57:21.055Z,101322.50
2022-11-03T01:59:49.970Z,101325.19
2022-11-03T02:02:17.959Z,101325.13
2022-11-03T02:04:48.326Z,101330.94
2022-11-03T02:07:19.079Z,101332.53
2022-11-03T02:09:47.129Z,101331.25
2022-11-03T02:12:17.079Z,101337.91
2022-11-03T02:14:50.840Z,101335.97
2022-11-03T02:17:21.942Z,101343.56
2022-11-03T02:19:55.798Z,101345.06
2022-11-03T02:22:37.300Z,101338.88
2022-11-03T02:25:16.423Z,101344.66
2022-11-03T02:27:46.234Z,101337.59
2022-11-03T02:30:14.712Z,101347.09
2022-11-03T02:32:52.369Z,101340.03
2022-11-03T02:35:25.205Z,101346.94
2022-11-03T02:37:57.549Z,101356.38
2022-11-03T02:40:29.453Z,101351.97
2022-11-03T02:43:00.327Z,101347.63
2022-11-03T02:45:29.949Z,101342.38
2022-11-03T02:48:01.968Z,101338.03
2022-11-03T02:50:31.452Z,101333.63
2022-11-03T02:52:59.718Z,101337.09
2022-11-03T02:55:36.664Z,101340.72
2022-11-03T02:58:14.439Z,101339.78
2022-11-03T03:00:47.270Z,101332.19
2022-11-03T03:03:21.650Z,101337.50
2022-11-03T03:05:54.076Z,101347.09
2022-11-03T03:08:24.325Z,101349.78
2022-11-03T03:10:56.622Z,101356.88
2022-11-03T03:13:26.286Z,101350.72
2022-11-03T03:16:06.679Z,101363.88
2022-11-03T03:18:42.650Z,101365.88
2022-11-03T03:21:17.551Z,101369.25
2022-11-03T03:23:50.850Z,101379.78
2022-11-03T03:26:24.586Z,101383.97
2022-11-03T03:28:59.441Z,101387.44
2022-11-03T03:31:30.782Z,101379.69
2022-11-03T03:34:04.916Z,101384.91
2022-11-03T03:36:41.145Z,101381.38
2022-11-03T03:39:11.685Z,101378.66
2022-11-03T03:41:40.818Z,101378.50
2022-11-03T03:44:11.700Z,101377.59
2022-11-03T03:46:44.748Z,101362.84
2022-11-03T03:49:12.998Z,101371.34
2022-11-03T03:51:42.201Z,101373.81
2022-11-03T03:54:10.285Z,101375.56
2022-11-03T03:56:42.729Z,101371.03
2022-11-03T03:59:11.965Z,101379.63
2022-11-03T04:01:39.964Z,101373.47
2022-11-03T04:04:07.932Z,101369.91
2022-11-03T04:06:35.835Z,101370.84
2022-11-03T04:09:03.792Z,101372.63
2022-11-03T04:11:48.825Z,101372.63
2022-11-03T04:14:35.797Z,101368.31
2022-11-03T04:17:21.293Z,101373.63
2022-11-03T04:20:06.505Z,101381.53
2022-11-03T04:22:35.205Z,101380.03
2022-11-03T04:25:03.335Z,101373.13
2022-11-03T04:27:33.331Z,101383.81
2022-11-03T04:30:08.654Z,101388.13
2022-11-03T04:32:37.314Z,101384.50
2022-11-03T04:35:15.602Z,101382.66
2022-11-03T04:37:47.432Z,101380.78
2022-11-03T04:40:17.414Z,101381.63
2022-11-03T04:42:45.875Z,101391.06
2022-11-03T04:45:23.005Z,101397.97
2022-11-03T04:47:51.571Z,101390.16
2022-11-03T04:50:21.161Z,101388.28
2022-11-03T04:52:49.488Z,101389.22
2022-11-03T04:55:19.589Z,101390.06
2022-11-03T04:57:47.758Z,101391.06
2022-11-03T05:00:20.433Z,101391.13
2022-11-03T05:02:53.220Z,101391.13
2022-11-03T05:05:26.124Z,101392.06
2022-11-03T05:07:56.618Z,101392.75
2022-11-03T05:10:28.036Z,101382.50
2022-11-03T05:12:57.242Z,101393.41
2022-11-03T05:15:36.331Z,101392.59
2022-11-03T05:18:17.206Z,101393.34
2022-11-03T05:20:50.708Z,101391.50
2022-11-03T05:23:20.009Z,101398.38
2022-11-03T05:25:49.937Z,101395.78
2022-11-03T05:28:27.189Z,101399.16
2022-11-03T05:30:56.706Z,101405.13
2022-11-03T05:33:29.181Z,101401.69
2022-11-03T05:35:59.711Z,101404.28
2022-11-03T05:38:31.830Z,101406.91
2022-11-03T05:41:00.165Z,101410.25
2022-11-03T05:43:29.734Z,101410.09
2022-11-03T05:46:02.782Z,101411.09
2022-11-03T05:48:34.409Z,101413.88
2022-11-03T05:51:11.989Z,101417.34
2022-11-03T05:53:43.443Z,101413.03
2022-11-03T05:56:17.734Z,101416.50
2022-11-03T05:58:47.495Z,101428.78
2022-11-03T06:01:25.044Z,101432.41
2022-11-03T06:03:53.164Z,101438.41
2022-11-03T06:06:32.664Z,101432.41
2022-11-03T06:09:03.234Z,101447.25
2022-11-03T06:11:33.817Z,101438.81
2022-11-03T06:14:01.540Z,101446.75
2022-11-03T06:16:39.354Z,101440.41
2022-11-03T06:19:32.638Z,101449.88
2022-11-03T06:22:06.979Z,101450.78
2022-11-03T06:24:35.882Z,101457.72
2022-11-03T06:27:04.273Z,101456.84
2022-11-03T06:29:34.570Z,101462.25
2022-11-03T06:32:03.810Z,101458.78
2022-11-03T06:34:38.087Z,101466.69
2022-11-03T06:37:21.175Z,101462.41
2022-11-03T06:39:50.003Z,101468.41
2022-11-03T06:42:21.357Z,101457.88
2022-11-03T06:44:51.627Z,101463.19
2022-11-03T06:47:25.233Z,101474.44
2022-11-03T06:49:56.514Z,101481.38
2022-11-03T06:52:27.615Z,101475.13
2022-11-03T06:55:02.483Z,101481.38
2022-11-03T06:57:36.883Z,101473.63
2022-11-03T07:03:10.520Z,101472.00
2022-11-03T07:05:39.269Z,101479.66
2022-11-03T07:08:19.214Z,101474.44
2022-11-03T07:10:47.280Z,101478.69
2022-11-03T07:13:20.942Z,101483.22
2022-11-03T07:15:48.989Z,101483.97
2022-11-03T07:18:23.747Z,101496.03
2022-11-03T07:20:53.014Z,101496.34
2022-11-03T07:23:24.227Z,101494.66
2022-11-03T07:25:55.136Z,101502.50
2022-11-03T07:28:32.466Z,101502.34
2022-11-03T07:31:02.142Z,101496.09
2022-11-03T07:33:32.933Z,101498.03
2022-11-03T07:36:17.313Z,101513.84
2022-11-03T07:38:47.407Z,101508.94
2022-11-03T07:41:19.965Z,101511.63
2022-11-03T07:43:52.575Z,101513.25
2022-11-03T07:46:22.670Z,101513.91
2022-11-03T07:48:55.290Z,101501.66
2022-11-03T07:51:25.706Z,101513.75
2022-11-03T07:53:54.692Z,101508.78
2022-11-03T07:56:24.616Z,101513.59
2022-11-03T07:58:55.410Z,101511.69
2022-11-03T08:01:32.577Z,101519.19
2022-11-03T08:04:06.144Z,101514.78
2022-11-03T08:06:34.608Z,101522.78
2022-11-03T08:09:03.130Z,101525.25
2022-11-03T08:11:31.202Z,101534.53
2022-11-03T08:13:59.105Z,101531.75
2022-11-03T08:16:27.119Z,101530.59
2022-11-03T08:18:54.999Z,101522.50
2022-11-03T08:21:24.362Z,101519.72
2022-11-03T08:23:52.427Z,101520.34
2022-11-03T08:26:20.775Z,101518.22
2022-11-03T08:28:48.993Z,101523.19
2022-11-03T08:31:16.937Z,101513.75
2022-11-03T08:33:45.253Z,101521.44
2022-11-03T08:36:14.386Z,101525.72
2022-11-03T08:38:43.797Z,101513.25
2022-11-03T08:41:11.648Z,101524.44
2022-11-03T08:43:39.685Z,101525.03
2022-11-03T08:46:15.771Z,101526.56
2022-11-03T08:48:45.561Z,101521.25
2022-11-03T08:51:14.713Z,101517.63
2022-11-03T08:53:44.407Z,101530.53
2022-11-03T08:56:14.977Z,101527.06
2022-11-03T08:58:43.149Z,101527.94
2022-11-03T09:01:11.413Z,101531.34
2022-11-03T09:03:39.456Z,101530.72
2022-11-03T09:06:08.374Z,101521.25
2022-11-03T09:11:25.531Z,101542.16
2022-11-03T09:13:53.528Z,101534.41
2022-11-03T09:16:21.431Z,101547.47
2022-11-03T09:18:49.489Z,101535.25
2022-11-03T09:21:17.711Z,101536.03
2022-11-03T09:23:45.878Z,101535.00
2022-11-03T09:26:13.753Z,101542.84
2022-11-03T09:28:43.173Z,101533.50
2022-11-03T09:31:11.159Z,101546.47
2022-11-03T09:33:39.001Z,101539.28
2022-11-03T09:36:07.606Z,101530.53
2022-11-03T09:38:35.525Z,101528.75
2022-11-03T09:41:09.806Z,101531.19
2022-11-03T09:43:49.961Z,101539.72
2022-11-03T09:46:18.326Z,101544.19
2022-11-03T09:48:46.418Z,101542.06
2022-11-03T09:51:20.620Z,101545.47
2022-11-03T09:53:49.406Z,101552.44
2022-11-03T09:56:20.594Z,101550.78
2022-11-03T09:58:54.327Z,101547.91
2022-11-03T10:01:23.976Z,101541.06
2022-11-03T10:03:52.340Z,101541.75
2022-11-03T10:06:21.410Z,101546.03
2022-11-03T10:08:50.420Z,101543.31
2022-11-03T10:11:18.917Z,101534.56
2022-11-03T10:13:52.964Z,101535.47
2022-11-03T10:16:23.723Z,101542.59
2022-11-03T10:18:52.250Z,101539.13
2022-11-03T10:21:21.934Z,101538.44
2022-11-03T10:23:50.758Z,101539.28
2022-11-03T10:26:20.012Z,101537.63
2022-11-03T10:29:04.461Z,101544.78
2022-11-03T10:31:37.536Z,101530.94
2022-11-03T10:34:06.117Z,101529.25
2022-11-03T10:36:35.279Z,101523.94
2022-11-03T10:39:26.318Z,101530.75
2022-11-03T10:41:58.899Z,101529.78
2022-11-03T10:44:29.955Z,101530.50
2022-11-03T10:46:59.706Z,101523.59
2022-11-03T10:49:30.390Z,101523.69
2022-11-03T10:52:14.375Z,101527.97
2022-11-03T10:54:42.247Z,101526.97
2022-11-03T10:57:10.128Z,101534.84
2022-11-03T10:59:40.718Z,101528.66
2022-11-03T11:02:17.151Z,101519.97
2022-11-03T11:04:45.686Z,101518.03
2022-11-03T11:07:26.583Z,101516.28
2022-11-03T11:09:55.387Z,101518.78
2022-11-03T11:12:25.087Z,101515.25
2022-11-03T11:14:57.664Z,101511.78
2022-11-03T11:17:42.080Z,101514.38
2022-11-03T11:20:31.316Z,101515.34
2022-11-03T11:23:32.332Z,101513.47
2022-11-03T11:26:34.185Z,101502.84
2022-11-03T11:29:45.027Z,101501.06
2022-11-03T11:32:52.378Z,101484.34
2022-11-03T11:36:05.610Z,101486.13
2022-11-03T11:39:11.177Z,101488.25
2022-11-03T11:42:11.921Z,101489.94
2022-11-03T11:45:04.648Z,101485.63
2022-11-03T11:47:49.279Z,101479.31
2022-11-03T11:50:29.625Z,101480.03
2022-11-03T11:53:00.725Z,101469.31
2022-11-03T11:55:39.809Z,101466.44
2022-11-03T11:58:16.724Z,101468.78
2022-11-03T12:00:56.503Z,101462.59
2022-11-03T12:03:29.832Z,101459.81
2022-11-03T12:05:57.860Z,101464.06
2022-11-03T12:08:29.798Z,101457.88
2022-11-03T12:11:01.813Z,101457.19
2022-11-03T12:13:47.761Z,101460.84
2022-11-03T12:16:35.656Z,101460.09
2022-11-03T12:19:34.144Z,101455.03
2022-11-03T12:22:02.779Z,101450.38
2022-11-03T12:24:49.342Z,101445.16
2022-11-03T12:27:42.040Z,101440.00
2022-11-03T12:30:15.545Z,101446.81
2022-11-03T12:32:43.704Z,101447.78
2022-11-03T12:35:13.762Z,101441.78
2022-11-03T12:37:42.174Z,101437.41
2022-11-03T12:40:13.610Z,101434.09
2022-11-03T12:42:43.329Z,101442.03
2022-11-03T12:45:13.793Z,101444.84
2022-11-03T12:47:42.014Z,101436.25
2022-11-03T12:50:10.843Z,101442.41
2022-11-03T12:52:38.685Z,101433.06
2022-11-03T12:55:07.122Z,101442.78
2022-11-03T12:57:35.005Z,101437.72
2022-11-03T13:00:06.279Z,101442.09
2022-11-03T13:02:34.544Z,101440.34
2022-11-03T13:05:02.541Z,101441.25
2022-11-03T13:07:34.546Z,101440.44
2022-11-03T13:10:04.908Z,101424.16
2022-11-03T13:12:32.872Z,101433.22
2022-11-03T13:15:01.986Z,101437.41
2022-11-03T13:17:35.976Z,101427.81
2022-11-03T13:20:19.226Z,101428.88
2022-11-03T13:22:47.079Z,101433.38
2022-11-03T13:25:15.159Z,101437.59
2022-11-03T13:27:43.115Z,101431.59
2022-11-03T13:30:12.189Z,101425.63
2022-11-03T13:32:41.622Z,101423.84
2022-11-03T13:35:13.686Z,101429.91
2022-11-03T13:37:42.590Z,101421.13
2022-11-03T13:40:29.211Z,101421.97
2022-11-03T13:42:59.998Z,101423.66
2022-11-03T13:45:28.609Z,101419.38
2022-11-03T13:50:46.658Z,101422.06
2022-11-03T13:56:08.697Z,101409.84
2022-11-03T14:01:24.981Z,101407.31
2022-11-03T14:06:42.404Z,101403.09
2022-11-03T14:09:10.423Z,101405.63
2022-11-03T14:11:55.846Z,101403.09
2022-11-03T14:14:23.683Z,101401.41
2022-11-03T14:16:51.811Z,101404.13
2022-11-03T14:19:21.287Z,101405.16
2022-11-03T14:21:49.193Z,101411.28
2022-11-03T14:24:17.858Z,101405.16
2022-11-03T14:26:45.767Z,101403.44
2022-11-03T14:29:13.651Z,101390.47
2022-11-03T14:31:42.031Z,101387.13
2022-11-03T14:34:10.020Z,101388.97
2022-11-03T14:36:39.405Z,101386.34
2022-11-03T14:39:07.286Z,101386.53
2022-11-03T14:41:52.800Z,101392.69
2022-11-03T14:44:20.652Z,101383.25
2022-11-03T14:46:48.509Z,101392.03
2022-11-03T14:49:16.400Z,101389.50
2022-11-03T14:51:45.642Z,101389.66
2022-11-03T14:54:13.481Z,101389.66
2022-11-03T14:56:41.370Z,101393.13
2022-11-03T14:59:10.543Z,101403.75
2022-11-03T15:01:39.138Z,101403.06
2022-11-03T15:04:08.010Z,101401.50
2022-11-03T15:06:36.139Z,101403.34
2022-11-03T15:09:06.600Z,101407.91
2022-11-03T15:11:34.497Z,101402.44
2022-11-03T15:14:02.784Z,101404.78
2022-11-03T15:16:30.927Z,101398.78
2022-11-03T15:18:59.263Z,101396.53
2022-11-03T15:21:28.163Z,101394.25
2022-11-03T15:26:45.292Z,101390.31
2022-11-03T15:29:15.813Z,101387.84
2022-11-03T15:31:47.854Z,101385.34
2022-11-03T15:34:16.420Z,101385.50
2022-11-03T15:36:44.346Z,101386.53
2022-11-03T15:39:12.214Z,101378.78
2022-11-03T15:41:40.101Z,101378.00
2022-11-03T15:44:10.105Z,101373.88
2022-11-03T15:46:37.977Z,101366.31
2022-11-03T15:49:05.831Z,101368.16
2022-11-03T15:51:33.775Z,101362.28
2022-11-03T15:54:02.508Z,101372.97
2022-11-03T15:56:30.796Z,101368.06
2022-11-03T15:58:58.723Z,101382.34
2022-11-03T16:01:28.172Z,101371.34
2022-11-03T16:03:56.228Z,101371.56
2022-11-03T16:06:35.121Z,101368.13
2022-11-03T16:09:11.989Z,101373.56
2022-11-03T16:11:39.869Z,101369.47
2022-11-03T16:14:07.768Z,101370.56
2022-11-03T16:16:37.005Z,101375.91
2022-11-03T16:19:04.906Z,101372.59
2022-11-03T16:21:32.776Z,101371.00
2022-11-03T16:24:00.656Z,101364.94
2022-11-03T16:26:28.532Z,101365.00
2022-11-03T16:28:56.400Z,101365.16
2022-11-03T16:31:24.341Z,101362.66
2022-11-03T16:33:53.599Z,101366.34
2022-11-03T16:36:21.504Z,101353.38
2022-11-03T16:38:49.368Z,101358.69
2022-11-03T16:41:17.245Z,101355.53
2022-11-03T16:43:46.381Z,101356.31
2022-11-03T16:46:14.598Z,101360.44
2022-11-03T16:48:42.722Z,101369.03
2022-11-03T16:51:11.986Z,101362.19
2022-11-03T16:53:39.819Z,101379.53
2022-11-03T16:56:08.179Z,101380.34
2022-11-03T16:58:36.060Z,101372.06
2022-11-03T17:01:04.700Z,101379.06
2022-11-03T17:03:32.917Z,101385.25
2022-11-03T17:06:02.093Z,101389.41
2022-11-03T17:08:51.752Z,101388.25
2022-11-03T17:11:36.168Z,101390.78
2022-11-03T17:14:06.247Z,101383.59
2022-11-03T17:16:34.269Z,101379.81
2022-11-03T17:19:02.164Z,101382.19
2022-11-03T17:21:30.020Z,101382.78
2022-11-03T17:24:00.680Z,101378.31
2022-11-03T17:26:42.891Z,101373.44
2022-11-03T17:29:16.881Z,101377.50
2022-11-03T17:31:44.785Z,101378.09
2022-11-03T17:34:13.100Z,101380.28
2022-11-03T17:36:41.606Z,101383.72
2022-11-03T17:39:16.794Z,101374.31
2022-11-03T17:41:44.730Z,101382.31
2022-11-03T17:44:13.090Z,101382.16
2022-11-03T17:46:41.313Z,101382.16
2022-11-03T17:49:09.212Z,101379.72
2022-11-03T17:51:42.106Z,101377.00
2022-11-03T17:54:17.151Z,101374.41
2022-11-03T17:56:45.258Z,101371.72
2022-11-03T17:59:16.718Z,101378.44
2022-11-03T18:01:45.563Z,101370.59
2022-11-03T18:04:15.821Z,101385.34
2022-11-03T18:06:43.765Z,101380.78
2022-11-03T18:09:13.061Z,101378.84
2022-11-03T18:12:01.577Z,101381.44
2022-11-03T18:14:31.245Z,101384.81
2022-11-03T18:16:59.664Z,101382.97
2022-11-03T18:19:27.589Z,101380.94
2022-11-03T18:21:55.492Z,101380.75
2022-11-03T18:24:24.921Z,101377.25
2022-11-03T18:26:52.828Z,101377.91
2022-11-03T18:29:20.975Z,101380.44
2022-11-03T18:31:50.692Z,101389.19
2022-11-03T18:34:22.612Z,101386.16
2022-11-03T18:36:52.666Z,101373.94
2022-11-03T18:39:25.335Z,101383.28
2022-11-03T18:41:53.260Z,101381.69
2022-11-03T18:44:22.795Z,101382.25
2022-11-03T18:46:52.465Z,101378.75
2022-11-03T18:49:20.973Z,101386.41
2022-11-03T18:51:53.595Z,101380.31
2022-11-03T18:54:25.206Z,101377.72
2022-11-03T18:56:54.578Z,101382.25
2022-11-03T18:59:25.786Z,101371.91
2022-11-03T19:01:54.110Z,101378.06
2022-11-03T19:04:22.667Z,101367.94
2022-11-03T19:06:54.619Z,101371.69
2022-11-03T19:09:26.853Z,101374.38
2022-11-03T19:11:57.827Z,101373.78
2022-11-03T19:14:29.778Z,101374.81
2022-11-03T19:19:46.505Z,101373.03
2022-11-03T19:22:18.331Z,101369.75
2022-11-03T19:24:48.103Z,101378.78
2022-11-03T19:27:20.234Z,101379.97
2022-11-03T19:29:48.659Z,101375.00
2022-11-03T19:32:20.807Z,101372.53
2022-11-03T19:34:55.883Z,101372.03
2022-11-03T19:37:23.899Z,101370.59
2022-11-03T19:39:53.646Z,101366.38
2022-11-03T19:42:31.899Z,101371.66
2022-11-03T19:45:01.197Z,101371.91
2022-11-03T19:47:32.824Z,101379.66
2022-11-03T19:50:02.525Z,101381.44
2022-11-03T19:52:32.719Z,101380.84
2022-11-03T19:55:05.700Z,101376.47
2022-11-03T19:57:33.941Z,101380.84
2022-11-03T20:00:01.789Z,101367.22
2022-11-03T20:02:29.787Z,101372.69
2022-11-03T20:04:57.894Z,101372.69
2022-11-03T20:07:31.568Z,101363.22
2022-11-03T20:10:01.436Z,101370.38
2022-11-03T20:12:31.608Z,101376.63
2022-11-03T20:14:59.782Z,101378.44
2022-11-03T20:17:27.694Z,101378.59
2022-11-03T20:19:55.620Z,101377.66
2022-11-03T20:22:30.149Z,101370.91
2022-11-03T20:25:03.136Z,101381.34
2022-11-03T20:27:33.725Z,101380.66
2022-11-03T20:30:01.610Z,101378.06
2022-11-03T20:32:29.556Z,101380.81
2022-11-03T20:34:57.465Z,101379.22
2022-11-03T20:37:25.433Z,101381.13
2022-11-03T20:39:53.768Z,101382.22
2022-11-03T20:42:24.342Z,101385.88
2022-11-03T20:44:54.077Z,101380.88
2022-11-03T20:47:22.065Z,101378.56
2022-11-03T20:49:49.951Z,101370.13
2022-11-03T20:52:17.973Z,101374.72
2022-11-03T20:54:45.875Z,101374.88
2022-11-03T20:57:14.455Z,101368.16
2022-11-03T20:59:42.704Z,101361.50
2022-11-03T21:02:14.109Z,101372.88
2022-11-03T21:04:43.297Z,101367.81
2022-11-03T21:07:12.734Z,101362.69
2022-11-03T21:09:41.218Z,101365.44
2022-11-03T21:12:13.293Z,101368.06
2022-11-03T21:15:04.143Z,101365.44
2022-11-03T21:17:51.045Z,101365.88
2022-11-03T21:20:18.931Z,101376.09
2022-11-03T21:23:05.323Z,101377.03
2022-11-03T21:25:33.243Z,101378.78
2022-11-03T21:28:01.184Z,101369.22
2022-11-03T21:30:29.177Z,101371.81
2022-11-03T21:32:58.634Z,101369.22
2022-11-03T21:35:26.753Z,101366.59
2022-11-03T21:37:54.643Z,101370.97
2022-11-03T21:40:22.622Z,101368.47
2022-11-03T21:43:07.783Z,101372.03
2022-11-03T21:45:36.081Z,101368.78
2022-11-03T21:48:23.629Z,101372.19
2022-11-03T21:50:51.896Z,101374.88
2022-11-03T21:53:19.804Z,101372.28
2022-11-03T21:55:48.765Z,101372.28
2022-11-03T21:58:16.635Z,101374.44
2022-11-03T22:00:47.273Z,101369.44
2022-11-03T22:03:16.804Z,101372.81
2022-11-03T22:05:44.790Z,101370.97
2022-11-03T22:08:12.851Z,101371.06
2022-11-03T22:10:41.394Z,101370.16
2022-11-03T22:13:10.913Z,101359.03
2022-11-03T22:15:56.732Z,101362.56
2022-11-03T22:18:26.577Z,101360.88
2022-11-03T22:21:11.671Z,101370.97
2022-11-03T22:23:57.407Z,101369.22
2022-11-03T22:26:42.486Z,101359.66
2022-11-03T22:29:27.912Z,101362.91
2022-11-03T22:31:55.811Z,101372.22
2022-11-03T22:34:43.025Z,101377.34
2022-11-03T22:37:10.859Z,101366.00
2022-11-03T22:39:56.310Z,101366.00
2022-11-03T22:42:41.633Z,101366.94
2022-11-03T22:45:28.319Z,101367.75
2022-11-03T22:47:57.515Z,101372.13
2022-11-03T22:50:27.076Z,101370.44
2022-11-03T22:52:54.948Z,101368.13
2022-11-03T22:55:21.909Z,101364.78
2022-11-03T22:57:49.980Z,101368.28
2022-11-03T23:00:20.406Z,101368.47
2022-11-03T23:02:48.110Z,101364.53
2022-11-03T23:05:16.027Z,101367.84
2022-11-03T23:07:45.315Z,101366.84
2022-11-03T23:10:13.225Z,101366.69
2022-11-03T23:12:41.214Z,101360.72
2022-11-03T23:15:27.391Z,101371.81
2022-11-03T23:18:09.120Z,101371.81
2022-11-03T23:20:56.847Z,101367.53
2022-11-03T23:23:43.590Z,101370.44
2022-11-03T23:26:11.566Z,101376.59
2022-11-03T23:28:39.477Z,101372.34
2022-11-03T23:31:07.579Z,101370.75
2022-11-03T23:33:36.626Z,101362.94
2022-11-03T23:36:05.245Z,101367.28
2022-11-03T23:38:36.569Z,101369.81
2022-11-03T23:41:09.616Z,101371.59
2022-11-03T23:43:37.697Z,101360.63
2022-11-03T23:46:23.428Z,101359.69
2022-11-03T23:48:52.636Z,101367.06
2022-11-03T23:51:22.407Z,101375.78
2022-11-03T23:53:52.429Z,101368.09
2022-11-03T23:56:39.774Z,101367.50
2022-11-03T23:59:08.753Z,101375.53
